sensor_id;sensor_type;location;lat;lon;timestamp;P1;durP1;ratioP1;P2;durP2;ratioP2
25127;SDS011;13107;51.304;6.866;2022-12-07T00:02:36;22.70;;;16.55;;
25127;SDS011;13107;51.304;6.866;2022-12-07T00:06:43;26.87;;;17.37;;
25127;SDS011;13107;51.304;6.866;2022-12-07T00:10:46;27.02;;;16.20;;
25127;SDS011;13107;51.304;6.866;2022-12-07T00:14:49;25.12;;;16.98;;
25127;SDS011;13107;51.304;6.866;2022-12-07T00:18:51;22.25;;;17.08;;
25127;SDS011;13107;51.304;6.866;2022-12-07T00:22:53;23.85;;;17.12;;
25127;SDS011;13107;51.304;6.866;2022-12-07T00:26:56;21.87;;;16.70;;
25127;SDS011;13107;51.304;6.866;2022-12-07T00:31:02;23.65;;;16.73;;
25127;SDS011;13107;51.304;6.866;2022-12-07T00:35:06;21.80;;;15.88;;
25127;SDS011;13107;51.304;6.866;2022-12-07T00:39:08;25.83;;;17.45;;
25127;SDS011;13107;51.304;6.866;2022-12-07T00:43:10;26.12;;;17.37;;
25127;SDS011;13107;51.304;6.866;2022-12-07T00:47:12;24.55;;;16.58;;
25127;SDS011;13107;51.304;6.866;2022-12-07T00:51:14;20.35;;;16.20;;
25127;SDS011;13107;51.304;6.866;2022-12-07T00:55:17;21.00;;;16.20;;
25127;SDS011;13107;51.304;6.866;2022-12-07T00:59:19;20.95;;;16.10;;
25127;SDS011;13107;51.304;6.866;2022-12-07T01:03:20;22.87;;;16.23;;
25127;SDS011;13107;51.304;6.866;2022-12-07T01:07:22;26.27;;;16.12;;
25127;SDS011;13107;51.304;6.866;2022-12-07T01:11:25;23.42;;;17.27;;
25127;SDS011;13107;51.304;6.866;2022-12-07T01:15:29;24.83;;;17.40;;
25127;SDS011;13107;51.304;6.866;2022-12-07T01:19:30;29.67;;;19.02;;
25127;SDS011;13107;51.304;6.866;2022-12-07T01:23:32;25.90;;;18.98;;
25127;SDS011;13107;51.304;6.866;2022-12-07T01:27:35;24.60;;;17.83;;
25127;SDS011;13107;51.304;6.866;2022-12-07T01:31:37;26.10;;;18.52;;
25127;SDS011;13107;51.304;6.866;2022-12-07T01:35:39;25.73;;;19.48;;
25127;SDS011;13107;51.304;6.866;2022-12-07T01:39:40;27.75;;;18.42;;
25127;SDS011;13107;51.304;6.866;2022-12-07T01:48:22;25.48;;;18.33;;
25127;SDS011;13107;51.304;6.866;2022-12-07T01:52:28;22.90;;;18.65;;
25127;SDS011;13107;51.304;6.866;2022-12-07T01:56:32;27.17;;;18.67;;
25127;SDS011;13107;51.304;6.866;2022-12-07T02:00:34;24.40;;;19.20;;
25127;SDS011;13107;51.304;6.866;2022-12-07T02:04:36;24.30;;;16.92;;
25127;SDS011;13107;51.304;6.866;2022-12-07T02:08:38;26.52;;;18.27;;
25127;SDS011;13107;51.304;6.866;2022-12-07T02:12:41;26.00;;;19.02;;
25127;SDS011;13107;51.304;6.866;2022-12-07T02:16:47;27.58;;;18.98;;
25127;SDS011;13107;51.304;6.866;2022-12-07T02:33:42;26.73;;;18.80;;
25127;SDS011;13107;51.304;6.866;2022-12-07T02:37:51;25.65;;;18.98;;
25127;SDS011;13107;51.304;6.866;2022-12-07T02:42:06;25.65;;;18.90;;
25127;SDS011;13107;51.304;6.866;2022-12-07T02:46:16;29.02;;;20.60;;
25127;SDS011;13107;51.304;6.866;2022-12-07T02:50:22;25.62;;;18.20;;
25127;SDS011;13107;51.304;6.866;2022-12-07T02:54:24;22.27;;;18.08;;
25127;SDS011;13107;51.304;6.866;2022-12-07T02:58:30;23.70;;;18.33;;
25127;SDS011;13107;51.304;6.866;2022-12-07T03:07:06;24.17;;;17.27;;
25127;SDS011;13107;51.304;6.866;2022-12-07T03:11:23;22.87;;;18.08;;
25127;SDS011;13107;51.304;6.866;2022-12-07T03:15:51;26.55;;;18.85;;
25127;SDS011;13107;51.304;6.866;2022-12-07T03:20:00;25.73;;;18.35;;
25127;SDS011;13107;51.304;6.866;2022-12-07T03:28:10;27.13;;;18.33;;
25127;SDS011;13107;51.304;6.866;2022-12-07T03:32:16;27.65;;;19.85;;
25127;SDS011;13107;51.304;6.866;2022-12-07T03:36:35;25.45;;;19.30;;
25127;SDS011;13107;51.304;6.866;2022-12-07T03:45:00;27.23;;;19.55;;
25127;SDS011;13107;51.304;6.866;2022-12-07T03:49:22;24.25;;;18.30;;
25127;SDS011;13107;51.304;6.866;2022-12-07T03:53:33;24.37;;;20.40;;
25127;SDS011;13107;51.304;6.866;2022-12-07T03:57:50;25.90;;;18.90;;
25127;SDS011;13107;51.304;6.866;2022-12-07T04:01:57;31.00;;;19.90;;
25127;SDS011;13107;51.304;6.866;2022-12-07T04:06:03;22.90;;;17.20;;
25127;SDS011;13107;51.304;6.866;2022-12-07T04:10:05;25.60;;;18.17;;
25127;SDS011;13107;51.304;6.866;2022-12-07T04:14:07;22.17;;;16.30;;
25127;SDS011;13107;51.304;6.866;2022-12-07T04:18:21;22.65;;;16.40;;
25127;SDS011;13107;51.304;6.866;2022-12-07T04:22:22;24.27;;;17.20;;
25127;SDS011;13107;51.304;6.866;2022-12-07T04:26:24;25.27;;;17.95;;
25127;SDS011;13107;51.304;6.866;2022-12-07T04:30:26;23.40;;;17.30;;
25127;SDS011;13107;51.304;6.866;2022-12-07T04:34:27;25.08;;;17.98;;
25127;SDS011;13107;51.304;6.866;2022-12-07T04:38:29;24.17;;;17.52;;
25127;SDS011;13107;51.304;6.866;2022-12-07T04:42:31;25.08;;;17.95;;
25127;SDS011;13107;51.304;6.866;2022-12-07T04:46:33;25.35;;;17.48;;
25127;SDS011;13107;51.304;6.866;2022-12-07T04:50:35;22.17;;;17.20;;
25127;SDS011;13107;51.304;6.866;2022-12-07T04:54:46;21.33;;;16.62;;
25127;SDS011;13107;51.304;6.866;2022-12-07T04:58:47;22.20;;;16.40;;
25127;SDS011;13107;51.304;6.866;2022-12-07T05:02:50;26.20;;;17.30;;
25127;SDS011;13107;51.304;6.866;2022-12-07T05:06:52;25.42;;;17.37;;
25127;SDS011;13107;51.304;6.866;2022-12-07T05:10:53;25.65;;;16.55;;
25127;SDS011;13107;51.304;6.866;2022-12-07T05:14:55;32.22;;;18.00;;
25127;SDS011;13107;51.304;6.866;2022-12-07T05:18:56;23.48;;;17.45;;
25127;SDS011;13107;51.304;6.866;2022-12-07T05:22:58;23.83;;;17.42;;
25127;SDS011;13107;51.304;6.866;2022-12-07T05:27:00;26.50;;;16.52;;
25127;SDS011;13107;51.304;6.866;2022-12-07T05:31:02;25.02;;;16.17;;
25127;SDS011;13107;51.304;6.866;2022-12-07T05:35:04;23.33;;;16.85;;
25127;SDS011;13107;51.304;6.866;2022-12-07T05:39:06;19.35;;;16.20;;
25127;SDS011;13107;51.304;6.866;2022-12-07T05:43:08;21.85;;;14.73;;
25127;SDS011;13107;51.304;6.866;2022-12-07T05:47:10;20.60;;;14.98;;
25127;SDS011;13107;51.304;6.866;2022-12-07T05:51:13;21.80;;;13.73;;
25127;SDS011;13107;51.304;6.866;2022-12-07T05:55:14;20.60;;;14.13;;
25127;SDS011;13107;51.304;6.866;2022-12-07T05:59:16;21.30;;;13.90;;
25127;SDS011;13107;51.304;6.866;2022-12-07T06:03:24;24.98;;;15.95;;
25127;SDS011;13107;51.304;6.866;2022-12-07T06:07:25;18.02;;;13.50;;
25127;SDS011;13107;51.304;6.866;2022-12-07T06:11:27;20.58;;;13.18;;
25127;SDS011;13107;51.304;6.866;2022-12-07T06:15:48;26.62;;;12.90;;
25127;SDS011;13107;51.304;6.866;2022-12-07T06:19:49;18.58;;;12.93;;
25127;SDS011;13107;51.304;6.866;2022-12-07T06:23:52;21.02;;;13.20;;
25127;SDS011;13107;51.304;6.866;2022-12-07T06:27:53;18.58;;;13.48;;
25127;SDS011;13107;51.304;6.866;2022-12-07T06:31:56;17.20;;;12.48;;
25127;SDS011;13107;51.304;6.866;2022-12-07T06:35:58;17.50;;;12.50;;
25127;SDS011;13107;51.304;6.866;2022-12-07T06:40:00;14.98;;;11.10;;
25127;SDS011;13107;51.304;6.866;2022-12-07T06:44:02;15.57;;;11.40;;
25127;SDS011;13107;51.304;6.866;2022-12-07T06:48:04;15.40;;;10.43;;
25127;SDS011;13107;51.304;6.866;2022-12-07T06:52:06;17.92;;;11.02;;
25127;SDS011;13107;51.304;6.866;2022-12-07T06:56:08;18.08;;;11.40;;
25127;SDS011;13107;51.304;6.866;2022-12-07T07:00:10;18.75;;;11.38;;
25127;SDS011;13107;51.304;6.866;2022-12-07T07:04:20;19.55;;;12.40;;
25127;SDS011;13107;51.304;6.866;2022-12-07T07:08:21;17.20;;;11.55;;
25127;SDS011;13107;51.304;6.866;2022-12-07T07:12:24;18.45;;;11.68;;
25127;SDS011;13107;51.304;6.866;2022-12-07T07:16:26;19.48;;;13.15;;
25127;SDS011;13107;51.304;6.866;2022-12-07T07:20:27;20.02;;;12.90;;
25127;SDS011;13107;51.304;6.866;2022-12-07T07:24:29;19.42;;;12.95;;
25127;SDS011;13107;51.304;6.866;2022-12-07T07:28:31;17.35;;;12.35;;
25127;SDS011;13107;51.304;6.866;2022-12-07T07:32:33;18.83;;;12.37;;
25127;SDS011;13107;51.304;6.866;2022-12-07T07:36:35;17.02;;;12.45;;
25127;SDS011;13107;51.304;6.866;2022-12-07T07:40:37;18.37;;;11.88;;
25127;SDS011;13107;51.304;6.866;2022-12-07T07:44:38;19.50;;;13.18;;
25127;SDS011;13107;51.304;6.866;2022-12-07T07:48:40;16.95;;;13.20;;
25127;SDS011;13107;51.304;6.866;2022-12-07T07:52:42;18.80;;;13.38;;
25127;SDS011;13107;51.304;6.866;2022-12-07T07:56:44;19.00;;;12.82;;
25127;SDS011;13107;51.304;6.866;2022-12-07T08:00:45;22.98;;;13.50;;
25127;SDS011;13107;51.304;6.866;2022-12-07T08:04:47;22.48;;;13.75;;
25127;SDS011;13107;51.304;6.866;2022-12-07T08:08:49;20.83;;;13.40;;
25127;SDS011;13107;51.304;6.866;2022-12-07T08:12:51;20.02;;;13.82;;
25127;SDS011;13107;51.304;6.866;2022-12-07T08:17:11;19.25;;;12.20;;
25127;SDS011;13107;51.304;6.866;2022-12-07T08:21:14;19.55;;;11.27;;
25127;SDS011;13107;51.304;6.866;2022-12-07T08:25:16;15.15;;;11.82;;
25127;SDS011;13107;51.304;6.866;2022-12-07T08:29:18;17.23;;;11.05;;
25127;SDS011;13107;51.304;6.866;2022-12-07T08:33:20;12.48;;;9.52;;
25127;SDS011;13107;51.304;6.866;2022-12-07T08:37:24;14.63;;;9.90;;
25127;SDS011;13107;51.304;6.866;2022-12-07T08:41:25;11.93;;;8.85;;
25127;SDS011;13107;51.304;6.866;2022-12-07T08:45:27;14.68;;;9.82;;
25127;SDS011;13107;51.304;6.866;2022-12-07T08:49:39;16.67;;;9.52;;
25127;SDS011;13107;51.304;6.866;2022-12-07T08:53:44;15.43;;;9.55;;
25127;SDS011;13107;51.304;6.866;2022-12-07T08:57:46;14.23;;;9.45;;
25127;SDS011;13107;51.304;6.866;2022-12-07T09:01:48;11.25;;;9.18;;
25127;SDS011;13107;51.304;6.866;2022-12-07T09:05:50;11.95;;;8.18;;
25127;SDS011;13107;51.304;6.866;2022-12-07T09:09:53;15.93;;;8.13;;
25127;SDS011;13107;51.304;6.866;2022-12-07T09:13:55;13.13;;;7.70;;
25127;SDS011;13107;51.304;6.866;2022-12-07T09:17:57;11.15;;;7.90;;
25127;SDS011;13107;51.304;6.866;2022-12-07T09:21:59;11.77;;;7.93;;
25127;SDS011;13107;51.304;6.866;2022-12-07T09:26:04;13.90;;;7.40;;
25127;SDS011;13107;51.304;6.866;2022-12-07T09:30:11;10.15;;;6.93;;
25127;SDS011;13107;51.304;6.866;2022-12-07T09:34:13;11.23;;;6.78;;
25127;SDS011;13107;51.304;6.866;2022-12-07T09:38:15;12.10;;;7.40;;
25127;SDS011;13107;51.304;6.866;2022-12-07T09:42:32;10.57;;;7.40;;
25127;SDS011;13107;51.304;6.866;2022-12-07T09:46:38;12.48;;;7.18;;
25127;SDS011;13107;51.304;6.866;2022-12-07T09:50:43;14.50;;;6.03;;
25127;SDS011;13107;51.304;6.866;2022-12-07T09:54:46;9.73;;;6.20;;
25127;SDS011;13107;51.304;6.866;2022-12-07T09:58:50;7.22;;;5.85;;
25127;SDS011;13107;51.304;6.866;2022-12-07T10:03:01;9.07;;;5.87;;
25127;SDS011;13107;51.304;6.866;2022-12-07T10:07:03;8.13;;;5.18;;
25127;SDS011;13107;51.304;6.866;2022-12-07T10:11:05;10.73;;;5.18;;
25127;SDS011;13107;51.304;6.866;2022-12-07T10:15:11;12.77;;;4.70;;
25127;SDS011;13107;51.304;6.866;2022-12-07T10:28:13;10.25;;;5.70;;
25127;SDS011;13107;51.304;6.866;2022-12-07T10:36:33;9.07;;;5.93;;
25127;SDS011;13107;51.304;6.866;2022-12-07T10:40:37;11.88;;;6.95;;
25127;SDS011;13107;51.304;6.866;2022-12-07T10:44:45;12.73;;;7.72;;
25127;SDS011;13107;51.304;6.866;2022-12-07T10:48:51;12.15;;;8.18;;
25127;SDS011;13107;51.304;6.866;2022-12-07T10:53:22;11.38;;;6.68;;
25127;SDS011;13107;51.304;6.866;2022-12-07T11:24:32;10.73;;;3.37;;
25127;SDS011;13107;51.304;6.866;2022-12-07T11:33:29;9.68;;;3.10;;
25127;SDS011;13107;51.304;6.866;2022-12-07T11:37:35;6.35;;;2.90;;
25127;SDS011;13107;51.304;6.866;2022-12-07T11:41:40;11.70;;;4.22;;
25127;SDS011;13107;51.304;6.866;2022-12-07T11:45:44;11.55;;;3.35;;
25127;SDS011;13107;51.304;6.866;2022-12-07T11:54:26;9.77;;;3.55;;
25127;SDS011;13107;51.304;6.866;2022-12-07T12:03:03;12.77;;;2.83;;
25127;SDS011;13107;51.304;6.866;2022-12-07T12:07:14;6.93;;;2.70;;
25127;SDS011;13107;51.304;6.866;2022-12-07T12:20:49;10.55;;;2.75;;
25127;SDS011;13107;51.304;6.866;2022-12-07T12:24:57;7.03;;;2.85;;
25127;SDS011;13107;51.304;6.866;2022-12-07T12:29:00;8.77;;;2.25;;
25127;SDS011;13107;51.304;6.866;2022-12-07T12:59:55;5.28;;;2.10;;
25127;SDS011;13107;51.304;6.866;2022-12-07T13:04:01;6.15;;;2.60;;
25127;SDS011;13107;51.304;6.866;2022-12-07T13:08:17;4.22;;;1.70;;
25127;SDS011;13107;51.304;6.866;2022-12-07T13:12:30;4.37;;;1.65;;
25127;SDS011;13107;51.304;6.866;2022-12-07T13:16:36;8.43;;;1.23;;
25127;SDS011;13107;51.304;6.866;2022-12-07T13:20:43;8.07;;;1.63;;
25127;SDS011;13107;51.304;6.866;2022-12-07T13:24:46;8.35;;;1.90;;
25127;SDS011;13107;51.304;6.866;2022-12-07T13:28:52;8.27;;;2.62;;
25127;SDS011;13107;51.304;6.866;2022-12-07T13:33:21;5.95;;;2.20;;
25127;SDS011;13107;51.304;6.866;2022-12-07T13:37:27;4.72;;;1.77;;
25127;SDS011;13107;51.304;6.866;2022-12-07T13:41:36;5.93;;;2.12;;
25127;SDS011;13107;51.304;6.866;2022-12-07T13:45:43;6.87;;;2.00;;
25127;SDS011;13107;51.304;6.866;2022-12-07T13:49:52;4.97;;;2.15;;
25127;SDS011;13107;51.304;6.866;2022-12-07T13:53:59;9.88;;;2.67;;
25127;SDS011;13107;51.304;6.866;2022-12-07T13:58:10;8.98;;;2.83;;
25127;SDS011;13107;51.304;6.866;2022-12-07T14:02:22;5.00;;;2.17;;
25127;SDS011;13107;51.304;6.866;2022-12-07T14:06:35;7.53;;;2.00;;
25127;SDS011;13107;51.304;6.866;2022-12-07T14:10:39;5.85;;;1.90;;
25127;SDS011;13107;51.304;6.866;2022-12-07T14:15:00;8.68;;;1.85;;
25127;SDS011;13107;51.304;6.866;2022-12-07T14:19:04;4.50;;;1.58;;
25127;SDS011;13107;51.304;6.866;2022-12-07T14:23:26;7.95;;;1.73;;
25127;SDS011;13107;51.304;6.866;2022-12-07T14:27:32;7.65;;;2.03;;
25127;SDS011;13107;51.304;6.866;2022-12-07T14:31:37;7.07;;;1.60;;
25127;SDS011;13107;51.304;6.866;2022-12-07T14:35:39;8.07;;;1.92;;
25127;SDS011;13107;51.304;6.866;2022-12-07T14:39:41;4.95;;;1.55;;
25127;SDS011;13107;51.304;6.866;2022-12-07T14:43:43;9.98;;;2.47;;
25127;SDS011;13107;51.304;6.866;2022-12-07T14:48:04;7.18;;;1.73;;
25127;SDS011;13107;51.304;6.866;2022-12-07T14:52:27;3.47;;;1.50;;
25127;SDS011;13107;51.304;6.866;2022-12-07T14:56:51;7.15;;;2.20;;
25127;SDS011;13107;51.304;6.866;2022-12-07T15:00:52;8.18;;;1.65;;
25127;SDS011;13107;51.304;6.866;2022-12-07T15:04:54;10.02;;;2.55;;
25127;SDS011;13107;51.304;6.866;2022-12-07T15:08:56;5.12;;;2.00;;
25127;SDS011;13107;51.304;6.866;2022-12-07T15:12:58;8.00;;;2.47;;
25127;SDS011;13107;51.304;6.866;2022-12-07T15:17:20;8.65;;;2.92;;
25127;SDS011;13107;51.304;6.866;2022-12-07T15:21:32;7.37;;;2.97;;
25127;SDS011;13107;51.304;6.866;2022-12-07T15:25:33;9.35;;;3.05;;
25127;SDS011;13107;51.304;6.866;2022-12-07T15:29:35;8.32;;;3.10;;
25127;SDS011;13107;51.304;6.866;2022-12-07T15:33:37;6.68;;;3.03;;
25127;SDS011;13107;51.304;6.866;2022-12-07T15:37:39;9.90;;;5.32;;
25127;SDS011;13107;51.304;6.866;2022-12-07T15:41:41;11.10;;;6.20;;
25127;SDS011;13107;51.304;6.866;2022-12-07T15:45:43;8.73;;;3.70;;
25127;SDS011;13107;51.304;6.866;2022-12-07T15:49:44;6.68;;;3.28;;
25127;SDS011;13107;51.304;6.866;2022-12-07T15:53:46;6.37;;;2.87;;
25127;SDS011;13107;51.304;6.866;2022-12-07T15:57:48;8.25;;;3.20;;
25127;SDS011;13107;51.304;6.866;2022-12-07T16:01:50;10.57;;;3.95;;
25127;SDS011;13107;51.304;6.866;2022-12-07T16:05:52;11.38;;;3.92;;
25127;SDS011;13107;51.304;6.866;2022-12-07T16:09:54;10.93;;;3.40;;
25127;SDS011;13107;51.304;6.866;2022-12-07T16:13:56;7.80;;;2.90;;
25127;SDS011;13107;51.304;6.866;2022-12-07T16:17:57;9.73;;;3.50;;
25127;SDS011;13107;51.304;6.866;2022-12-07T16:21:59;9.52;;;3.37;;
25127;SDS011;13107;51.304;6.866;2022-12-07T16:26:05;10.90;;;3.08;;
25127;SDS011;13107;51.304;6.866;2022-12-07T16:30:08;9.55;;;3.53;;
25127;SDS011;13107;51.304;6.866;2022-12-07T16:34:10;9.60;;;3.47;;
25127;SDS011;13107;51.304;6.866;2022-12-07T16:38:11;12.63;;;3.62;;
25127;SDS011;13107;51.304;6.866;2022-12-07T16:42:13;6.90;;;3.00;;
25127;SDS011;13107;51.304;6.866;2022-12-07T16:46:15;6.45;;;2.92;;
25127;SDS011;13107;51.304;6.866;2022-12-07T16:50:16;8.13;;;3.40;;
25127;SDS011;13107;51.304;6.866;2022-12-07T16:54:18;15.35;;;4.20;;
25127;SDS011;13107;51.304;6.866;2022-12-07T16:58:20;9.95;;;3.95;;
25127;SDS011;13107;51.304;6.866;2022-12-07T17:02:22;7.05;;;4.32;;
25127;SDS011;13107;51.304;6.866;2022-12-07T17:06:24;10.90;;;3.87;;
25127;SDS011;13107;51.304;6.866;2022-12-07T17:10:28;10.68;;;4.45;;
25127;SDS011;13107;51.304;6.866;2022-12-07T17:14:30;9.57;;;5.50;;
25127;SDS011;13107;51.304;6.866;2022-12-07T17:18:50;12.07;;;4.93;;
25127;SDS011;13107;51.304;6.866;2022-12-07T17:22:52;11.25;;;5.43;;
25127;SDS011;13107;51.304;6.866;2022-12-07T17:26:54;17.55;;;6.20;;
25127;SDS011;13107;51.304;6.866;2022-12-07T17:30:56;10.05;;;5.68;;
25127;SDS011;13107;51.304;6.866;2022-12-07T17:34:57;12.05;;;6.35;;
25127;SDS011;13107;51.304;6.866;2022-12-07T17:39:01;17.90;;;7.68;;
25127;SDS011;13107;51.304;6.866;2022-12-07T17:43:07;10.93;;;5.70;;
25127;SDS011;13107;51.304;6.866;2022-12-07T17:47:09;9.05;;;6.45;;
25127;SDS011;13107;51.304;6.866;2022-12-07T17:51:11;15.32;;;7.05;;
25127;SDS011;13107;51.304;6.866;2022-12-07T17:55:31;9.90;;;6.55;;
25127;SDS011;13107;51.304;6.866;2022-12-07T17:59:53;12.68;;;7.20;;
25127;SDS011;13107;51.304;6.866;2022-12-07T18:03:55;13.88;;;7.37;;
25127;SDS011;13107;51.304;6.866;2022-12-07T18:07:57;11.05;;;7.07;;
25127;SDS011;13107;51.304;6.866;2022-12-07T18:11:59;11.00;;;7.70;;
25127;SDS011;13107;51.304;6.866;2022-12-07T18:16:01;14.55;;;7.85;;
25127;SDS011;13107;51.304;6.866;2022-12-07T18:20:11;15.02;;;7.32;;
25127;SDS011;13107;51.304;6.866;2022-12-07T18:24:14;11.55;;;7.62;;
25127;SDS011;13107;51.304;6.866;2022-12-07T18:28:17;10.85;;;7.00;;
25127;SDS011;13107;51.304;6.866;2022-12-07T18:32:20;11.82;;;7.68;;
25127;SDS011;13107;51.304;6.866;2022-12-07T18:36:22;11.23;;;7.55;;
25127;SDS011;13107;51.304;6.866;2022-12-07T18:40:24;9.93;;;6.70;;
25127;SDS011;13107;51.304;6.866;2022-12-07T18:44:27;10.88;;;5.57;;
25127;SDS011;13107;51.304;6.866;2022-12-07T18:48:29;9.57;;;6.03;;
25127;SDS011;13107;51.304;6.866;2022-12-07T18:52:30;12.37;;;6.90;;
25127;SDS011;13107;51.304;6.866;2022-12-07T18:56:32;10.63;;;7.05;;
25127;SDS011;13107;51.304;6.866;2022-12-07T19:00:34;13.45;;;8.63;;
25127;SDS011;13107;51.304;6.866;2022-12-07T19:04:36;11.43;;;9.15;;
25127;SDS011;13107;51.304;6.866;2022-12-07T19:08:37;18.05;;;10.98;;
25127;SDS011;13107;51.304;6.866;2022-12-07T19:12:39;16.87;;;11.48;;
25127;SDS011;13107;51.304;6.866;2022-12-07T19:16:42;15.68;;;11.23;;
25127;SDS011;13107;51.304;6.866;2022-12-07T19:20:45;16.60;;;11.00;;
25127;SDS011;13107;51.304;6.866;2022-12-07T19:24:48;17.10;;;11.68;;
25127;SDS011;13107;51.304;6.866;2022-12-07T19:28:51;20.23;;;15.07;;
25127;SDS011;13107;51.304;6.866;2022-12-07T19:32:52;17.73;;;12.13;;
25127;SDS011;13107;51.304;6.866;2022-12-07T19:36:54;16.77;;;11.63;;
25127;SDS011;13107;51.304;6.866;2022-12-07T19:41:03;17.17;;;13.18;;
25127;SDS011;13107;51.304;6.866;2022-12-07T19:45:06;26.08;;;13.70;;
25127;SDS011;13107;51.304;6.866;2022-12-07T19:49:08;18.17;;;12.82;;
25127;SDS011;13107;51.304;6.866;2022-12-07T19:53:10;22.00;;;12.25;;
25127;SDS011;13107;51.304;6.866;2022-12-07T19:57:11;17.25;;;13.18;;
25127;SDS011;13107;51.304;6.866;2022-12-07T20:01:16;17.65;;;12.88;;
25127;SDS011;13107;51.304;6.866;2022-12-07T20:05:18;16.70;;;12.68;;
25127;SDS011;13107;51.304;6.866;2022-12-07T20:09:22;20.23;;;13.52;;
25127;SDS011;13107;51.304;6.866;2022-12-07T20:13:24;19.30;;;14.18;;
25127;SDS011;13107;51.304;6.866;2022-12-07T20:17:28;22.50;;;13.80;;
25127;SDS011;13107;51.304;6.866;2022-12-07T20:21:30;23.52;;;15.20;;
25127;SDS011;13107;51.304;6.866;2022-12-07T20:25:34;23.00;;;15.52;;
25127;SDS011;13107;51.304;6.866;2022-12-07T20:29:36;21.48;;;15.98;;
25127;SDS011;13107;51.304;6.866;2022-12-07T20:33:38;21.30;;;15.45;;
25127;SDS011;13107;51.304;6.866;2022-12-07T20:37:40;21.75;;;15.35;;
25127;SDS011;13107;51.304;6.866;2022-12-07T20:41:42;24.87;;;15.98;;
25127;SDS011;13107;51.304;6.866;2022-12-07T20:46:02;27.65;;;16.40;;
25127;SDS011;13107;51.304;6.866;2022-12-07T20:50:04;24.48;;;17.17;;
25127;SDS011;13107;51.304;6.866;2022-12-07T20:54:06;24.15;;;16.83;;
25127;SDS011;13107;51.304;6.866;2022-12-07T20:58:08;28.15;;;15.52;;
25127;SDS011;13107;51.304;6.866;2022-12-07T21:02:11;27.83;;;15.82;;
25127;SDS011;13107;51.304;6.866;2022-12-07T21:06:14;23.05;;;15.20;;
25127;SDS011;13107;51.304;6.866;2022-12-07T21:10:17;24.55;;;15.90;;
25127;SDS011;13107;51.304;6.866;2022-12-07T21:14:19;25.55;;;15.52;;
25127;SDS011;13107;51.304;6.866;2022-12-07T21:18:22;23.55;;;15.90;;
25127;SDS011;13107;51.304;6.866;2022-12-07T21:22:23;21.40;;;14.70;;
25127;SDS011;13107;51.304;6.866;2022-12-07T21:26:25;22.58;;;15.82;;
25127;SDS011;13107;51.304;6.866;2022-12-07T21:30:28;23.15;;;15.02;;
25127;SDS011;13107;51.304;6.866;2022-12-07T21:34:49;21.25;;;13.95;;
25127;SDS011;13107;51.304;6.866;2022-12-07T21:38:51;21.55;;;13.98;;
25127;SDS011;13107;51.304;6.866;2022-12-07T21:42:53;23.85;;;15.50;;
25127;SDS011;13107;51.304;6.866;2022-12-07T21:46:55;23.70;;;16.08;;
25127;SDS011;13107;51.304;6.866;2022-12-07T21:51:06;23.52;;;14.63;;
25127;SDS011;13107;51.304;6.866;2022-12-07T21:55:09;24.65;;;14.48;;
25127;SDS011;13107;51.304;6.866;2022-12-07T21:59:12;22.40;;;14.90;;
25127;SDS011;13107;51.304;6.866;2022-12-07T22:03:15;20.65;;;14.43;;
25127;SDS011;13107;51.304;6.866;2022-12-07T22:07:17;22.50;;;13.93;;
25127;SDS011;13107;51.304;6.866;2022-12-07T22:11:19;25.35;;;15.30;;
25127;SDS011;13107;51.304;6.866;2022-12-07T22:15:21;21.62;;;14.73;;
25127;SDS011;13107;51.304;6.866;2022-12-07T22:19:23;21.73;;;13.85;;
25127;SDS011;13107;51.304;6.866;2022-12-07T22:23:25;19.98;;;13.70;;
25127;SDS011;13107;51.304;6.866;2022-12-07T22:27:27;22.62;;;15.20;;
25127;SDS011;13107;51.304;6.866;2022-12-07T22:31:29;24.73;;;14.35;;
25127;SDS011;13107;51.304;6.866;2022-12-07T22:35:31;20.27;;;14.18;;
25127;SDS011;13107;51.304;6.866;2022-12-07T22:39:32;22.73;;;15.32;;
25127;SDS011;13107;51.304;6.866;2022-12-07T22:43:34;21.60;;;14.57;;
25127;SDS011;13107;51.304;6.866;2022-12-07T22:47:36;22.23;;;14.65;;
25127;SDS011;13107;51.304;6.866;2022-12-07T22:51:39;27.40;;;15.35;;
25127;SDS011;13107;51.304;6.866;2022-12-07T22:55:41;22.67;;;15.48;;
25127;SDS011;13107;51.304;6.866;2022-12-07T22:59:43;26.05;;;15.07;;
25127;SDS011;13107;51.304;6.866;2022-12-07T23:03:45;25.67;;;15.65;;
25127;SDS011;13107;51.304;6.866;2022-12-07T23:07:47;24.65;;;15.82;;
25127;SDS011;13107;51.304;6.866;2022-12-07T23:11:49;22.87;;;15.82;;
25127;SDS011;13107;51.304;6.866;2022-12-07T23:16:13;23.55;;;14.90;;
25127;SDS011;13107;51.304;6.866;2022-12-07T23:20:15;27.48;;;17.70;;
25127;SDS011;13107;51.304;6.866;2022-12-07T23:24:17;24.92;;;15.77;;
25127;SDS011;13107;51.304;6.866;2022-12-07T23:28:19;24.45;;;17.15;;
25127;SDS011;13107;51.304;6.866;2022-12-07T23:32:21;24.58;;;16.70;;
25127;SDS011;13107;51.304;6.866;2022-12-07T23:36:23;24.42;;;17.12;;
25127;SDS011;13107;51.304;6.866;2022-12-07T23:40:26;26.00;;;16.12;;
25127;SDS011;13107;51.304;6.866;2022-12-07T23:44:28;25.40;;;16.92;;
25127;SDS011;13107;51.304;6.866;2022-12-07T23:48:30;25.35;;;17.92;;
25127;SDS011;13107;51.304;6.866;2022-12-07T23:52:31;24.85;;;17.48;;
25127;SDS011;13107;51.304;6.866;2022-12-07T23:56:33;24.17;;;17.70;;
